Time;durP1;ratioP1;P1;durP2;ratioP2;P2;SDS_P1;SDS_P2;PMS_P1;PMS_P2;Temp;Humidity;BMP_temperature;BMP_pressure;BME280_temperature;BME280_humidity;BME280_pressure;Samples;Min_cycle;Max_cycle;Signal;HPM_P1;HPM_P2
2021/05/08 00:01:52;;;;;;;4.38;2.00;;;3.90;99.90;;;;;;5052520;28;20070;-78
2021/05/08 00:04:17;;;;;;;6.70;2.80;;;3.90;99.90;;;;;;5053521;28;20071;-81
2021/05/08 00:06:45;;;;;;;3.75;1.73;;;3.80;99.90;;;;;;5052397;28;20127;-80
2021/05/08 00:09:11;;;;;;;3.92;1.77;;;3.90;99.90;;;;;;5052341;28;20029;-80
2021/05/08 00:11:38;;;;;;;2.88;2.15;;;4.20;99.90;;;;;;5052611;28;20027;-80
2021/05/08 00:14:04;;;;;;;6.60;2.20;;;3.90;99.90;;;;;;5052868;28;20029;-78
2021/05/08 00:16:30;;;;;;;4.25;1.80;;;3.80;99.90;;;;;;5052291;28;20029;-80
2021/05/08 00:18:56;;;;;;;3.00;2.17;;;3.70;99.90;;;;;;5052234;28;20025;-78
2021/05/08 00:21:21;;;;;;;2.47;1.92;;;3.60;99.90;;;;;;5051928;28;20040;-80
2021/05/08 00:23:47;;;;;;;2.63;2.08;;;3.60;99.90;;;;;;5052200;28;20086;-79
2021/05/08 00:26:13;;;;;;;3.55;1.98;;;3.60;99.90;;;;;;5053358;28;20021;-80
2021/05/08 00:28:39;;;;;;;5.15;3.35;;;3.60;99.90;;;;;;5052984;28;20048;-79
2021/05/08 00:31:05;;;;;;;5.20;2.83;;;3.60;99.90;;;;;;5052237;28;20426;-80
2021/05/08 00:33:30;;;;;;;2.72;2.10;;;3.60;99.90;;;;;;5053240;28;20036;-77
2021/05/08 00:35:56;;;;;;;4.40;2.33;;;3.60;99.90;;;;;;5051961;28;20119;-79
2021/05/08 00:38:22;;;;;;;3.92;2.53;;;3.50;99.90;;;;;;5051641;28;20024;-79
2021/05/08 00:40:48;;;;;;;2.72;1.98;;;3.50;99.90;;;;;;5051663;28;20036;-80
2021/05/08 00:43:18;;;;;;;3.75;2.42;;;3.40;99.90;;;;;;5051812;28;20035;-80
2021/05/08 00:45:43;;;;;;;2.65;2.40;;;3.50;99.90;;;;;;5051664;28;20025;-79
2021/05/08 00:48:11;;;;;;;5.20;2.47;;;3.40;99.90;;;;;;5052935;28;20468;-80
2021/05/08 00:50:37;;;;;;;3.70;2.55;;;3.40;99.90;;;;;;5053052;28;20100;-80
2021/05/08 00:53:04;;;;;;;4.22;2.55;;;3.40;99.90;;;;;;5051513;28;20113;-79
2021/05/08 00:55:30;;;;;;;3.95;2.47;;;3.60;99.90;;;;;;5052515;28;20048;-79
2021/05/08 00:57:56;;;;;;;4.32;2.22;;;3.50;99.90;;;;;;5051518;28;20404;-81
2021/05/08 01:00:22;;;;;;;3.38;2.28;;;3.40;99.90;;;;;;5052873;28;20025;-80
2021/05/08 01:02:48;;;;;;;2.40;2.20;;;3.40;99.90;;;;;;5051341;28;20029;-79
2021/05/08 01:05:15;;;;;;;3.58;2.10;;;3.30;99.90;;;;;;5051217;28;20025;-79
2021/05/08 01:07:41;;;;;;;2.88;1.88;;;3.20;99.90;;;;;;5051373;28;20116;-80
2021/05/08 01:10:09;;;;;;;3.88;2.85;;;3.20;99.90;;;;;;5051036;28;20444;-80
2021/05/08 01:12:37;;;;;;;5.68;3.83;;;3.10;99.90;;;;;;5050811;28;20448;-79
2021/05/08 01:15:05;;;;;;;3.53;2.88;;;3.10;99.90;;;;;;5034267;28;20033;-80
2021/05/08 01:17:31;;;;;;;4.18;3.08;;;3.10;99.90;;;;;;5050865;28;20036;-80
2021/05/08 01:19:56;;;;;;;5.20;2.60;;;3.10;99.90;;;;;;5052644;28;20046;-80
2021/05/08 01:22:22;;;;;;;3.10;2.50;;;3.10;99.90;;;;;;5051145;28;20021;-80
2021/05/08 01:24:48;;;;;;;7.15;2.22;;;3.40;99.90;;;;;;5050960;28;20025;-80
2021/05/08 01:27:14;;;;;;;2.92;2.28;;;3.00;99.90;;;;;;5050830;28;20095;-80
2021/05/08 01:29:39;;;;;;;2.80;2.35;;;3.00;99.90;;;;;;5050903;28;20033;-79
2021/05/08 01:32:05;;;;;;;7.32;2.20;;;3.00;99.90;;;;;;5052157;28;20036;-78
2021/05/08 01:34:31;;;;;;;3.10;1.80;;;3.00;99.90;;;;;;5050835;28;20419;-80
2021/05/08 01:36:57;;;;;;;3.60;2.05;;;3.00;99.90;;;;;;5050749;28;20078;-80
2021/05/08 01:39:22;;;;;;;2.25;1.90;;;2.90;99.90;;;;;;5050834;28;20120;-79
2021/05/08 01:41:48;;;;;;;5.70;3.00;;;2.80;99.90;;;;;;5050614;28;20116;-78
2021/05/08 01:44:14;;;;;;;7.50;5.63;;;2.80;99.90;;;;;;5050809;28;20330;-79
2021/05/08 01:46:39;;;;;;;5.53;3.13;;;2.80;99.90;;;;;;5052184;28;20512;-79
2021/05/08 01:49:05;;;;;;;3.97;2.45;;;2.80;99.90;;;;;;5050675;28;20028;-79
2021/05/08 01:51:32;;;;;;;3.00;2.22;;;2.90;99.90;;;;;;5050651;28;20491;-79
2021/05/08 01:53:58;;;;;;;2.70;2.08;;;2.90;99.90;;;;;;5051764;28;20104;-80
2021/05/08 01:56:23;;;;;;;3.53;1.60;;;2.80;99.90;;;;;;5050447;28;20112;-79
2021/05/08 01:58:49;;;;;;;2.95;2.03;;;2.60;99.90;;;;;;5050160;28;20492;-79
2021/05/08 02:01:15;;;;;;;3.22;1.90;;;2.60;99.90;;;;;;5051817;28;20028;-79
2021/05/08 02:03:41;;;;;;;2.30;1.70;;;2.70;99.90;;;;;;5051730;28;20107;-79
2021/05/08 02:06:07;;;;;;;2.10;1.70;;;2.70;99.90;;;;;;5050226;28;20112;-79
2021/05/08 02:08:32;;;;;;;3.67;1.70;;;2.70;99.90;;;;;;5050426;28;20171;-79
2021/05/08 02:10:58;;;;;;;4.03;1.80;;;2.70;99.90;;;;;;5051816;28;20028;-80
2021/05/08 02:13:24;;;;;;;3.08;1.75;;;2.60;99.90;;;;;;5050374;28;20540;-80
2021/05/08 02:15:50;;;;;;;2.85;1.50;;;2.60;99.90;;;;;;5051400;28;20033;-79
2021/05/08 02:18:16;;;;;;;2.38;1.80;;;2.50;99.90;;;;;;5050371;28;20040;-78
2021/05/08 02:20:44;;;;;;;1.75;1.50;;;2.40;99.90;;;;;;5050326;28;20491;-78
2021/05/08 02:23:12;;;;;;;3.00;2.03;;;2.50;99.90;;;;;;5052702;28;20487;-79
2021/05/08 02:25:38;;;;;;;4.90;2.40;;;2.50;99.90;;;;;;5054367;28;20353;-78
2021/05/08 02:28:04;;;;;;;7.03;2.45;;;2.50;99.90;;;;;;5053965;28;20138;-79
2021/05/08 02:30:35;;;;;;;5.32;1.92;;;2.60;99.90;;;;;;5055513;28;20099;-79
2021/05/08 02:33:01;;;;;;;3.67;2.20;;;2.40;99.90;;;;;;5054234;28;20052;-78
2021/05/08 02:35:28;;;;;;;3.22;2.40;;;2.40;99.90;;;;;;5054036;28;20035;-77
2021/05/08 02:37:55;;;;;;;2.47;1.98;;;2.40;99.90;;;;;;5053946;28;20029;-80
2021/05/08 02:40:27;;;;;;;3.00;2.33;;;2.40;99.90;;;;;;5055650;28;20020;-79
2021/05/08 02:42:54;;;;;;;2.63;2.25;;;2.30;99.90;;;;;;5053936;28;20032;-77
2021/05/08 02:45:20;;;;;;;4.82;2.40;;;2.40;99.90;;;;;;5055330;28;20124;-79
2021/05/08 02:47:47;;;;;;;7.13;4.45;;;2.40;99.90;;;;;;5055270;28;20083;-80
2021/05/08 02:50:15;;;;;;;10.50;5.28;;;2.40;99.90;;;;;;5054042;28;20037;-78
2021/05/08 02:52:41;;;;;;;12.10;3.05;;;2.40;99.90;;;;;;5054880;28;20029;-80
2021/05/08 02:55:07;;;;;;;2.83;2.40;;;2.30;99.90;;;;;;5055025;28;20079;-80
2021/05/08 02:57:34;;;;;;;3.38;2.50;;;2.30;99.90;;;;;;5053572;28;20132;-79
2021/05/08 03:00:00;;;;;;;5.35;2.50;;;2.20;99.90;;;;;;5054813;28;20464;-81
2021/05/08 03:02:26;;;;;;;3.88;2.38;;;2.30;99.90;;;;;;5053538;28;20031;-78
2021/05/08 03:04:52;;;;;;;3.40;2.30;;;2.30;99.90;;;;;;5053563;28;20380;-80
2021/05/08 03:07:18;;;;;;;4.07;2.60;;;2.30;99.90;;;;;;5053659;28;20079;-80
2021/05/08 03:09:44;;;;;;;4.57;2.60;;;2.30;99.90;;;;;;5054567;28;20060;-79
2021/05/08 03:12:10;;;;;;;2.90;2.20;;;2.30;99.90;;;;;;5053295;28;20505;-81
2021/05/08 03:14:36;;;;;;;5.43;3.03;;;2.30;99.90;;;;;;5053156;28;20060;-81
2021/05/08 03:17:02;;;;;;;6.53;3.35;;;2.20;99.90;;;;;;5054373;28;20160;-79
2021/05/08 03:19:27;;;;;;;7.53;3.08;;;2.20;99.90;;;;;;5054222;28;20110;-78
2021/05/08 03:21:53;;;;;;;5.32;3.65;;;2.10;99.90;;;;;;5054315;28;20537;-78
2021/05/08 03:24:19;;;;;;;5.43;3.53;;;2.10;99.90;;;;;;5054426;28;20021;-79
2021/05/08 03:26:44;;;;;;;13.13;4.05;;;2.00;99.90;;;;;;5054380;28;20041;-77
2021/05/08 03:29:10;;;;;;;9.65;5.78;;;1.90;99.90;;;;;;5054336;28;20037;-80
2021/05/08 03:31:36;;;;;;;12.93;7.32;;;1.90;99.90;;;;;;5054478;28;20029;-78
2021/05/08 03:34:01;;;;;;;14.30;8.05;;;1.80;99.90;;;;;;5054020;28;20406;-78
2021/05/08 03:36:28;;;;;;;12.38;7.80;;;1.90;99.90;;;;;;5052930;28;20044;-78
2021/05/08 03:38:54;;;;;;;18.33;9.73;;;1.90;99.90;;;;;;5054475;28;20025;-81
2021/05/08 03:41:21;;;;;;;11.60;7.03;;;1.90;99.90;;;;;;5054256;28;20025;-79
2021/05/08 03:43:47;;;;;;;8.45;6.28;;;2.00;99.90;;;;;;5054385;28;20423;-80
2021/05/08 03:46:12;;;;;;;11.77;6.35;;;2.00;99.90;;;;;;5052784;28;20029;-80
2021/05/08 03:48:38;;;;;;;8.18;5.03;;;2.00;99.90;;;;;;5052733;28;20453;-78
2021/05/08 03:51:04;;;;;;;10.25;6.38;;;2.10;99.90;;;;;;5053949;28;20033;-81
2021/05/08 03:53:30;;;;;;;10.43;5.45;;;2.00;99.90;;;;;;5054029;28;20376;-80
2021/05/08 03:55:56;;;;;;;9.05;5.57;;;2.10;99.90;;;;;;5054023;28;20029;-77
2021/05/08 03:58:29;;;;;;;7.15;4.25;;;2.20;99.90;;;;;;5054052;28;20033;-78
2021/05/08 04:00:56;;;;;;;5.15;4.25;;;2.20;99.90;;;;;;5052417;28;20533;-79
2021/05/08 04:03:22;;;;;;;5.25;3.83;;;2.20;99.90;;;;;;5052438;28;20036;-77
2021/05/08 04:05:48;;;;;;;6.90;4.22;;;2.20;99.90;;;;;;5052491;28;20370;-79
2021/05/08 04:08:14;;;;;;;5.25;4.10;;;2.10;99.90;;;;;;5052264;28;20036;-77
2021/05/08 04:10:40;;;;;;;7.47;4.10;;;2.10;99.90;;;;;;5053751;28;20025;-78
2021/05/08 04:13:06;;;;;;;6.07;3.90;;;2.10;99.90;;;;;;5051040;28;20027;-80
2021/05/08 04:15:32;;;;;;;8.68;4.60;;;2.30;99.90;;;;;;5051646;28;20112;-80
2021/05/08 04:17:58;;;;;;;16.60;9.57;;;2.20;99.90;;;;;;5052959;28;20044;-80
2021/05/08 04:20:23;;;;;;;12.27;7.40;;;2.30;99.90;;;;;;5051929;28;20091;-80
2021/05/08 04:22:49;;;;;;;7.28;5.18;;;2.40;99.90;;;;;;5051949;28;20480;-81
2021/05/08 04:25:15;;;;;;;8.55;5.10;;;2.50;99.90;;;;;;5053244;28;20108;-79
2021/05/08 04:27:41;;;;;;;12.23;5.38;;;2.40;99.90;;;;;;5051532;28;20131;-79
2021/05/08 04:30:07;;;;;;;9.07;5.60;;;2.50;99.90;;;;;;5051980;28;20021;-80
2021/05/08 04:32:33;;;;;;;12.40;7.10;;;2.50;99.90;;;;;;5051824;28;20939;-81
2021/05/08 04:34:59;;;;;;;11.10;5.82;;;2.50;99.90;;;;;;5051625;28;20032;-79
2021/05/08 04:37:24;;;;;;;13.80;5.22;;;2.60;99.90;;;;;;5052950;28;20087;-77
2021/05/08 04:39:50;;;;;;;10.65;5.07;;;2.60;99.90;;;;;;5051633;28;20021;-80
2021/05/08 04:42:16;;;;;;;6.18;4.47;;;2.60;99.90;;;;;;5051649;28;20028;-79
2021/05/08 04:44:41;;;;;;;11.38;4.82;;;2.70;99.90;;;;;;5051456;28;20017;-79
2021/05/08 04:47:07;;;;;;;12.88;8.80;;;2.90;99.90;;;;;;5053413;28;20028;-79
2021/05/08 04:49:33;;;;;;;7.95;4.20;;;4.20;99.90;;;;;;5056688;28;20529;-79
2021/05/08 04:51:58;;;;;;;4.93;3.28;;;3.70;99.90;;;;;;5051383;28;20079;-79
2021/05/08 04:54:24;;;;;;;4.68;3.55;;;3.50;99.90;;;;;;5052443;28;20033;-80
2021/05/08 04:56:50;;;;;;;5.38;3.13;;;3.40;99.90;;;;;;5052812;28;20041;-78
2021/05/08 04:59:16;;;;;;;6.20;3.40;;;3.30;99.90;;;;;;5051496;28;20052;-77
2021/05/08 05:01:42;;;;;;;4.57;3.72;;;3.40;99.90;;;;;;5051568;28;20028;-79
2021/05/08 05:04:07;;;;;;;4.65;3.95;;;3.40;99.90;;;;;;5055795;28;20100;-80
2021/05/08 05:06:33;;;;;;;5.03;3.30;;;3.50;99.90;;;;;;5051235;28;20057;-81
2021/05/08 05:08:59;;;;;;;4.15;2.95;;;3.70;99.90;;;;;;5051332;28;20372;-79
2021/05/08 05:11:25;;;;;;;6.50;2.80;;;3.80;99.90;;;;;;5051026;28;20075;-79
2021/05/08 05:13:51;;;;;;;3.80;2.70;;;4.00;99.90;;;;;;5051070;28;20029;-80
2021/05/08 05:16:16;;;;;;;3.33;2.22;;;4.10;99.90;;;;;;5052271;28;20047;-80
2021/05/08 05:18:42;;;;;;;4.80;2.70;;;4.30;99.90;;;;;;5052136;28;20029;-79
2021/05/08 05:21:08;;;;;;;3.22;2.45;;;4.40;99.90;;;;;;5051087;28;20025;-79
2021/05/08 05:23:34;;;;;;;6.68;2.45;;;4.60;99.90;;;;;;5050995;28;20487;-78
2021/05/08 05:26:00;;;;;;;8.32;5.10;;;4.70;99.90;;;;;;5051282;28;20115;-78
2021/05/08 05:28:28;;;;;;;6.13;3.17;;;4.90;99.90;;;;;;5051980;28;20117;-79
2021/05/08 05:30:54;;;;;;;6.13;2.53;;;5.10;99.90;;;;;;5052265;28;20021;-79
2021/05/08 05:33:20;;;;;;;7.13;2.70;;;5.30;99.90;;;;;;5052276;28;20373;-78
2021/05/08 05:35:47;;;;;;;4.32;2.88;;;5.40;99.90;;;;;;5051857;28;20028;-78
2021/05/08 05:38:13;;;;;;;7.05;3.35;;;5.60;99.90;;;;;;5051954;28;20112;-78
2021/05/08 05:40:39;;;;;;;3.40;2.75;;;5.70;99.90;;;;;;5052005;28;20096;-79
2021/05/08 05:43:04;;;;;;;3.47;2.95;;;5.90;99.90;;;;;;5052253;28;20029;-78
2021/05/08 05:45:30;;;;;;;6.97;3.20;;;6.00;99.90;;;;;;5051005;28;20021;-78
2021/05/08 05:48:02;;;;;;;4.47;3.25;;;6.10;99.90;;;;;;5051824;28;20465;-80
2021/05/08 05:50:28;;;;;;;3.78;2.90;;;6.20;99.90;;;;;;5051122;28;20483;-79
2021/05/08 05:52:54;;;;;;;6.47;2.58;;;6.30;99.90;;;;;;5052019;28;20439;-79
2021/05/08 05:55:24;;;;;;;6.28;2.90;;;6.40;99.90;;;;;;5050519;28;20108;-80
2021/05/08 05:57:53;;;;;;;3.08;2.55;;;6.50;99.90;;;;;;5051556;28;20037;-79
2021/05/08 06:00:20;;;;;;;4.57;2.60;;;6.70;99.90;;;;;;5051844;28;20029;-77
2021/05/08 06:02:45;;;;;;;9.30;2.55;;;7.00;99.90;;;;;;5051732;28;20033;-80
2021/05/08 06:05:12;;;;;;;6.22;2.60;;;7.30;99.90;;;;;;5051810;28;20021;-80
2021/05/08 06:07:38;;;;;;;4.20;3.00;;;7.40;99.90;;;;;;5050420;28;20120;-79
2021/05/08 06:10:06;;;;;;;4.93;2.78;;;7.60;99.90;;;;;;5050618;28;20375;-80
2021/05/08 06:12:32;;;;;;;3.67;2.55;;;7.70;99.90;;;;;;5051898;28;20029;-79
2021/05/08 06:14:58;;;;;;;11.45;3.05;;;7.90;99.90;;;;;;5050559;28;20021;-79
2021/05/08 06:17:24;;;;;;;4.07;3.15;;;8.10;99.90;;;;;;5051706;28;20053;-79
2021/05/08 06:19:49;;;;;;;4.85;2.83;;;8.60;99.90;;;;;;5051946;28;20052;-81
2021/05/08 06:22:15;;;;;;;4.70;2.50;;;9.70;99.90;;;;;;5052172;28;20021;-75
2021/05/08 06:24:41;;;;;;;6.68;3.22;;;9.50;99.90;;;;;;5051931;28;20380;-74
2021/05/08 06:27:07;;;;;;;4.68;2.10;;;9.40;99.90;;;;;;5051554;28;20075;-77
2021/05/08 06:29:32;;;;;;;2.83;1.90;;;9.40;99.90;;;;;;5051469;28;20017;-74
2021/05/08 06:31:58;;;;;;;4.30;2.38;;;9.40;99.90;;;;;;5051599;28;20025;-76
2021/05/08 06:34:24;;;;;;;5.55;2.63;;;9.60;99.90;;;;;;5051724;28;20078;-75
2021/05/08 06:36:49;;;;;;;7.05;2.55;;;9.70;99.90;;;;;;5050398;28;20484;-74
2021/05/08 06:39:15;;;;;;;4.68;2.80;;;9.80;99.90;;;;;;5050281;28;20445;-74
2021/05/08 06:41:41;;;;;;;4.25;2.40;;;10.00;99.90;;;;;;5051652;28;20118;-77
2021/05/08 06:44:06;;;;;;;4.07;2.97;;;10.10;99.90;;;;;;5051503;28;20025;-74
2021/05/08 06:46:32;;;;;;;4.97;3.03;;;10.20;99.90;;;;;;5051954;28;20071;-75
2021/05/08 06:48:58;;;;;;;8.05;2.75;;;10.40;99.90;;;;;;5051440;28;20060;-74
2021/05/08 06:51:24;;;;;;;9.77;2.78;;;11.10;99.90;;;;;;5051463;28;20354;-76
2021/05/08 06:53:49;;;;;;;3.83;2.47;;;11.80;99.90;;;;;;5051426;28;20033;-74
2021/05/08 06:56:15;;;;;;;3.88;2.33;;;11.90;99.90;;;;;;5051487;28;20118;-74
2021/05/08 06:58:41;;;;;;;5.07;2.20;;;12.30;99.90;;;;;;5051435;28;20021;-74
2021/05/08 07:01:08;;;;;;;3.30;2.15;;;12.50;99.90;;;;;;5051457;28;20427;-74
2021/05/08 07:03:33;;;;;;;7.57;2.08;;;12.60;98.00;;;;;;5050126;28;20556;-74
2021/05/08 07:05:59;;;;;;;2.72;1.80;;;12.50;96.50;;;;;;5050800;28;20100;-74
2021/05/08 07:08:24;;;;;;;3.17;1.80;;;12.80;95.70;;;;;;5050989;28;20452;-78
2021/05/08 07:10:52;;;;;;;3.15;1.73;;;12.70;94.40;;;;;;5054603;28;20100;-74
2021/05/08 07:13:18;;;;;;;2.97;2.10;;;12.80;95.40;;;;;;5053786;28;20029;-74
2021/05/08 07:15:44;;;;;;;3.60;2.20;;;12.80;93.90;;;;;;5054762;28;20044;-75
2021/05/08 07:18:10;;;;;;;4.50;1.77;;;12.70;94.00;;;;;;5054858;28;20409;-77
2021/05/08 07:20:37;;;;;;;2.35;1.50;;;12.60;92.70;;;;;;5053609;28;20028;-74
2021/05/08 07:23:04;;;;;;;2.63;1.77;;;12.40;94.70;;;;;;5053895;28;20064;-76
2021/05/08 07:25:31;;;;;;;3.55;1.95;;;12.50;94.90;;;;;;5054585;28;20369;-75
2021/05/08 07:28:14;;;;;;;2.30;1.73;;;12.40;95.60;;;;;;5054516;28;20045;-74
2021/05/08 07:30:45;;;;;;;3.55;1.90;;;12.30;95.50;;;;;;5054442;28;20048;-73
2021/05/08 07:33:12;;;;;;;2.08;1.83;;;12.40;95.80;;;;;;5054680;28;20172;-73
2021/05/08 07:35:38;;;;;;;4.70;1.98;;;12.30;96.70;;;;;;5052952;28;20476;-74
2021/05/08 07:38:04;;;;;;;2.58;2.08;;;12.30;95.90;;;;;;5054442;28;20388;-74
2021/05/08 07:40:31;;;;;;;3.80;2.22;;;12.30;95.10;;;;;;5054535;28;20018;-73
2021/05/08 07:42:58;;;;;;;2.95;1.65;;;12.40;95.80;;;;;;5054522;28;20051;-73
2021/05/08 07:45:23;;;;;;;6.50;1.55;;;12.50;96.90;;;;;;5052808;28;20025;-78
2021/05/08 07:47:49;;;;;;;3.55;1.70;;;12.50;94.80;;;;;;5054352;28;20029;-77
2021/05/08 07:50:15;;;;;;;3.40;1.50;;;12.60;93.90;;;;;;5054248;28;20021;-74
2021/05/08 07:52:41;;;;;;;1.65;1.23;;;12.60;94.90;;;;;;5052933;28;20108;-77
2021/05/08 07:55:07;;;;;;;3.45;1.50;;;12.60;94.10;;;;;;5054085;28;20029;-74
2021/05/08 07:57:33;;;;;;;3.30;1.80;;;12.60;93.00;;;;;;5054094;28;20411;-73
2021/05/08 07:59:59;;;;;;;2.80;1.75;;;12.70;93.80;;;;;;5054220;28;20104;-74
2021/05/08 08:02:24;;;;;;;3.22;1.35;;;12.80;93.70;;;;;;5052711;28;20113;-75
2021/05/08 08:04:50;;;;;;;7.32;1.88;;;13.00;95.30;;;;;;5053982;28;20017;-75
2021/05/08 08:07:15;;;;;;;10.65;1.90;;;13.20;91.60;;;;;;5052441;28;20036;-75
2021/05/08 08:09:43;;;;;;;1.80;1.58;;;13.30;90.60;;;;;;5053626;28;20485;-74
2021/05/08 08:12:09;;;;;;;2.67;1.20;;;13.50;90.50;;;;;;5053701;28;20092;-74
2021/05/08 08:14:35;;;;;;;2.75;1.35;;;13.50;89.20;;;;;;5053731;28;20090;-74
2021/05/08 08:17:01;;;;;;;3.30;1.30;;;13.80;88.50;;;;;;5053595;28;20033;-74
2021/05/08 08:19:26;;;;;;;2.28;1.30;;;13.90;81.30;;;;;;5053247;28;20087;-75
2021/05/08 08:21:52;;;;;;;7.43;1.50;;;14.20;88.90;;;;;;5053335;28;20032;-74
2021/05/08 08:24:18;;;;;;;4.55;1.50;;;14.40;90.30;;;;;;5051652;28;20020;-74
2021/05/08 08:26:43;;;;;;;5.40;1.48;;;14.60;82.00;;;;;;5052974;28;20029;-74
2021/05/08 08:29:09;;;;;;;1.88;1.25;;;14.80;81.80;;;;;;5053133;28;20037;-74
2021/05/08 08:31:34;;;;;;;2.80;1.50;;;14.90;82.80;;;;;;5051619;28;20025;-76
2021/05/08 08:34:00;;;;;;;3.95;1.50;;;14.90;82.10;;;;;;5051982;28;20045;-75
2021/05/08 08:36:26;;;;;;;3.67;1.40;;;15.00;80.60;;;;;;5051894;28;20033;-75
2021/05/08 08:38:51;;;;;;;2.42;1.40;;;15.00;79.80;;;;;;5051855;28;20029;-80
2021/05/08 08:41:17;;;;;;;4.07;1.63;;;14.90;77.80;;;;;;5053280;28;20028;-81
2021/05/08 08:43:45;;;;;;;2.00;1.50;;;14.90;79.10;;;;;;5049355;28;20847;-78
2021/05/08 08:46:11;;;;;;;9.43;1.40;;;14.30;75.60;;;;;;5042275;28;20024;-78
2021/05/08 08:48:39;;;;;;;2.05;1.40;;;14.10;81.90;;;;;;5052632;28;20021;-78
2021/05/08 08:51:05;;;;;;;5.13;1.30;;;14.10;78.80;;;;;;5052785;28;20458;-78
2021/05/08 08:53:31;;;;;;;2.60;1.33;;;14.40;82.50;;;;;;5052473;28;20040;-80
2021/05/08 08:55:58;;;;;;;4.93;1.90;;;14.40;84.80;;;;;;5051313;28;20024;-81
2021/05/08 08:58:31;;;;;;;2.63;1.65;;;14.20;76.30;;;;;;5051282;28;20451;-77
2021/05/08 09:00:59;;;;;;;6.10;1.38;;;13.60;76.10;;;;;;5051184;28;20028;-79
2021/05/08 09:03:25;;;;;;;2.10;1.08;;;13.50;74.10;;;;;;5052612;28;20538;-78
2021/05/08 09:05:51;;;;;;;2.25;1.20;;;13.50;72.60;;;;;;5051034;28;20029;-78
2021/05/08 09:08:16;;;;;;;2.90;1.30;;;13.60;74.70;;;;;;5052543;28;20032;-79
2021/05/08 09:10:42;;;;;;;1.98;1.10;;;13.60;69.80;;;;;;5052649;28;20098;-80
2021/05/08 09:13:15;;;;;;;5.45;1.08;;;13.80;72.90;;;;;;5052453;28;20029;-78
2021/05/08 09:15:43;;;;;;;2.25;1.20;;;14.10;77.10;;;;;;5050901;28;20119;-77
2021/05/08 09:18:30;;;;;;;9.27;2.25;;;14.40;76.30;;;;;;5051684;28;20032;-78
2021/05/08 09:20:56;;;;;;;10.93;2.83;;;14.60;77.30;;;;;;5050793;28;20021;-78
2021/05/08 09:23:31;;;;;;;2.72;1.20;;;14.90;75.40;;;;;;5051969;28;20380;-80
2021/05/08 09:26:15;;;;;;;;;;;14.90;69.40;;;;;;5051495;28;20021;-78
2021/05/08 09:28:51;;;;;;;2.47;1.35;;;15.00;71.70;;;;;;5050302;28;19917;-77
2021/05/08 09:31:18;;;;;;;1.77;1.00;;;15.20;70.90;;;;;;5051465;28;20472;-79
2021/05/08 09:33:51;;;;;;;4.90;1.20;;;15.20;72.00;;;;;;5051798;28;20033;-79
2021/05/08 09:36:17;;;;;;;1.88;1.10;;;15.40;73.70;;;;;;5051996;28;20083;-79
2021/05/08 09:38:44;;;;;;;1.90;1.10;;;15.40;66.00;;;;;;5050051;28;20492;-79
2021/05/08 09:41:16;;;;;;;2.13;1.08;;;15.40;66.90;;;;;;5051874;28;20025;-79
2021/05/08 09:43:42;;;;;;;3.17;0.90;;;15.50;65.60;;;;;;5050113;28;20460;-79
2021/05/08 09:46:22;;;;;;;1.40;0.90;;;15.70;69.10;;;;;;5052097;28;20036;-79
2021/05/08 09:48:47;;;;;;;1.45;1.10;;;15.80;63.30;;;;;;5051582;28;20021;-81
2021/05/08 09:51:20;;;;;;;1.55;1.00;;;15.80;63.80;;;;;;5051603;28;20124;-79
2021/05/08 09:53:46;;;;;;;2.30;1.00;;;15.80;67.60;;;;;;5051832;28;20014;-78
2021/05/08 09:56:35;;;;;;;1.95;0.93;;;15.80;63.90;;;;;;5050008;28;20037;-78
2021/05/08 09:59:37;;;;;;;2.10;1.10;;;15.80;63.40;;;;;;5050589;28;20400;-79
2021/05/08 10:02:03;;;;;;;1.27;0.90;;;15.80;64.80;;;;;;5051331;28;20048;-78
2021/05/08 10:04:33;;;;;;;7.47;1.02;;;15.80;62.10;;;;;;5051805;28;20471;-77
2021/05/08 10:07:11;;;;;;;3.28;1.23;;;16.00;66.40;;;;;;5051820;28;20354;-78
2021/05/08 10:09:39;;;;;;;3.17;1.35;;;16.20;64.10;;;;;;5051572;28;20033;-79
2021/05/08 10:12:09;;;;;;;1.60;1.30;;;16.00;64.40;;;;;;5051627;28;20377;-80
2021/05/08 10:14:37;;;;;;;2.35;1.20;;;15.60;59.80;;;;;;5050487;28;20017;-80
2021/05/08 10:17:03;;;;;;;9.40;1.90;;;15.20;61.20;;;;;;5051235;28;20154;-80
2021/05/08 10:19:32;;;;;;;10.77;1.77;;;14.70;65.00;;;;;;5051204;28;20052;-78
2021/05/08 10:22:06;;;;;;;1.95;1.27;;;14.60;65.70;;;;;;5050107;28;20028;-81
2021/05/08 10:24:32;;;;;;;3.78;1.50;;;14.70;65.80;;;;;;5050028;28;20071;-78
2021/05/08 10:26:58;;;;;;;5.15;1.10;;;15.00;65.30;;;;;;5049905;28;20033;-79
2021/05/08 10:29:29;;;;;;;6.18;5.00;;;15.30;64.50;;;;;;5051340;28;20037;-80
2021/05/08 10:32:00;;;;;;;2.20;1.95;;;15.60;64.40;;;;;;5051667;28;20108;-79
2021/05/08 10:34:39;;;;;;;3.38;1.55;;;15.70;63.20;;;;;;5051338;28;20186;-80
2021/05/08 10:37:09;;;;;;;2.60;1.00;;;15.60;61.40;;;;;;5050182;28;20083;-79
2021/05/08 10:39:55;;;;;;;2.33;1.10;;;15.40;62.00;;;;;;5051233;28;20075;-78
2021/05/08 10:42:29;;;;;;;3.53;1.10;;;15.10;58.60;;;;;;5049822;28;20025;-79
2021/05/08 10:44:56;;;;;;;4.65;1.60;;;15.20;62.50;;;;;;5053490;28;20017;-77
2021/05/08 10:47:21;;;;;;;2.33;1.33;;;15.20;64.90;;;;;;5054953;28;20033;-79
2021/05/08 10:50:21;;;;;;;2.25;1.30;;;15.00;66.20;;;;;;5054217;28;20384;-79
2021/05/08 10:53:07;;;;;;;3.10;1.30;;;15.20;71.70;;;;;;5053343;28;20033;-77
2021/05/08 10:55:53;;;;;;;2.33;1.30;;;15.60;68.00;;;;;;5054794;28;20029;-77
2021/05/08 10:58:21;;;;;;;8.38;4.85;;;16.00;71.00;;;;;;5053377;28;20045;-77
2021/05/08 11:00:48;;;;;;;2.55;1.50;;;16.10;64.50;;;;;;5054395;28;20044;-79
2021/05/08 11:03:16;;;;;;;9.68;6.55;;;16.30;65.30;;;;;;5052863;28;20036;-78
2021/05/08 11:06:13;;;;;;;19.88;11.48;;;16.40;62.30;;;;;;5054402;28;20032;-79
2021/05/08 11:08:40;;;;;;;17.65;12.35;;;16.40;67.70;;;;;;5054675;28;20059;-77
2021/05/08 11:11:07;;;;;;;9.35;6.40;;;16.40;64.00;;;;;;5054225;28;20075;-81
2021/05/08 11:13:41;;;;;;;11.00;8.07;;;16.30;63.60;;;;;;5054572;28;20029;-80
2021/05/08 11:16:06;;;;;;;11.50;7.00;;;16.40;61.50;;;;;;5054311;28;20419;-79
2021/05/08 11:18:33;;;;;;;9.05;6.45;;;16.40;64.50;;;;;;5053018;28;20029;-79
2021/05/08 11:21:00;;;;;;;4.07;2.70;;;16.30;65.70;;;;;;5054496;28;20809;-80
2021/05/08 11:23:27;;;;;;;5.47;2.72;;;16.40;65.20;;;;;;5054243;28;20384;-79
2021/05/08 11:25:53;;;;;;;7.28;3.03;;;16.40;60.20;;;;;;5054345;28;20071;-80
2021/05/08 11:28:18;;;;;;;4.70;2.22;;;16.20;60.40;;;;;;5054631;28;20045;-78
2021/05/08 11:30:54;;;;;;;5.15;2.78;;;16.10;60.20;;;;;;5054894;28;20031;-78
2021/05/08 11:33:26;;;;;;;8.30;3.75;;;16.10;63.80;;;;;;5054963;28;20025;-78
2021/05/08 11:36:06;;;;;;;10.82;6.03;;;16.10;64.10;;;;;;5054786;28;20098;-77
2021/05/08 11:38:32;;;;;;;4.07;2.42;;;16.20;62.00;;;;;;5054673;28;20029;-78
2021/05/08 11:40:57;;;;;;;12.50;6.40;;;16.30;61.90;;;;;;5054571;28;20028;-75
2021/05/08 11:43:24;;;;;;;11.60;7.35;;;16.40;63.20;;;;;;5054663;28;20036;-76
2021/05/08 11:45:50;;;;;;;4.05;2.30;;;16.40;60.90;;;;;;5054781;28;20120;-77
2021/05/08 11:48:16;;;;;;;4.78;2.95;;;16.50;57.00;;;;;;5054453;28;20503;-78
2021/05/08 11:50:42;;;;;;;8.25;1.98;;;16.30;57.20;;;;;;5054462;28;20376;-78
2021/05/08 11:53:21;;;;;;;3.72;1.98;;;16.40;60.00;;;;;;5054005;28;20037;-80
2021/05/08 11:55:47;;;;;;;2.60;1.20;;;16.60;58.30;;;;;;5054099;28;20025;-79
2021/05/08 11:58:26;;;;;;;1.88;1.38;;;16.60;57.90;;;;;;5054107;28;20029;-82
2021/05/08 12:00:52;;;;;;;2.53;1.35;;;16.30;57.40;;;;;;5054038;28;20517;-82
2021/05/08 12:03:18;;;;;;;2.72;1.70;;;16.10;59.20;;;;;;5054835;28;20112;-84
2021/05/08 12:05:45;;;;;;;4.13;1.67;;;16.20;60.60;;;;;;5053184;28;20117;-80
2021/05/08 12:08:13;;;;;;;6.25;2.00;;;16.40;59.80;;;;;;5054188;28;20013;-78
2021/05/08 12:10:41;;;;;;;2.15;1.30;;;16.60;59.10;;;;;;5053782;28;20021;-80
2021/05/08 12:13:08;;;;;;;2.90;1.02;;;16.70;58.00;;;;;;5052224;28;20067;-77
2021/05/08 12:15:35;;;;;;;2.97;1.00;;;16.60;55.00;;;;;;5053575;28;20040;-77
2021/05/08 12:18:03;;;;;;;6.32;1.48;;;16.60;53.70;;;;;;5053656;28;20033;-79
2021/05/08 12:20:36;;;;;;;3.78;1.10;;;16.80;55.60;;;;;;5053393;28;20508;-78
2021/05/08 12:23:08;;;;;;;1.42;1.00;;;17.00;56.80;;;;;;5053817;28;20032;-76
2021/05/08 12:25:35;;;;;;;2.58;0.88;;;17.20;54.30;;;;;;5052945;28;20088;-78
2021/05/08 12:28:17;;;;;;;1.55;0.95;;;17.10;52.30;;;;;;5051622;28;20041;-79
2021/05/08 12:30:44;;;;;;;3.50;1.05;;;16.80;53.80;;;;;;5051958;28;20159;-75
2021/05/08 12:33:24;;;;;;;3.53;1.00;;;16.90;55.80;;;;;;5053239;28;20013;-78
2021/05/08 12:35:51;;;;;;;4.93;1.63;;;17.20;55.50;;;;;;5051742;28;20025;-77
2021/05/08 12:38:17;;;;;;;3.42;1.20;;;17.50;53.90;;;;;;5053022;28;20033;-78
2021/05/08 12:40:44;;;;;;;5.00;1.17;;;17.80;50.30;;;;;;5052038;28;20029;-77
2021/05/08 12:43:10;;;;;;;1.92;1.05;;;18.00;50.50;;;;;;5053178;28;20025;-79
2021/05/08 12:46:06;;;;;;;2.72;1.00;;;18.00;49.20;;;;;;5053023;28;20031;-77
2021/05/08 12:48:43;;;;;;;5.55;1.17;;;17.60;52.20;;;;;;5053067;28;20056;-76
2021/05/08 12:51:28;;;;;;;1.90;1.20;;;17.50;54.90;;;;;;5053132;28;20034;-77
2021/05/08 12:54:22;;;;;;;3.00;1.52;;;17.50;55.20;;;;;;5053043;28;20052;-78